Time;durP1;ratioP1;P1;durP2;ratioP2;P2;SDS_P1;SDS_P2;PMS_P1;PMS_P2;Temp;Humidity;BMP_temperature;BMP_pressure;BME280_temperature;BME280_humidity;BME280_pressure;Samples;Min_cycle;Max_cycle;Signal;HPM_P1;HPM_P2
2021/12/01 00:00:07;;;;;;;4.45;1.40;;;;;;;5.05;100.00;99856.63;6300488;28;20044;-76
2021/12/01 00:03:09;;;;;;;2.55;1.50;;;;;;;5.07;100.00;99839.16;6300448;28;20048;-76
2021/12/01 00:06:11;;;;;;;1.67;0.93;;;;;;;5.07;100.00;99844.34;6300078;28;20052;-76
2021/12/01 00:09:12;;;;;;;4.13;1.45;;;;;;;5.04;100.00;99826.28;6300280;28;20052;-76
2021/12/01 00:12:14;;;;;;;2.47;1.30;;;;;;;5.03;100.00;99823.72;6300532;28;20049;-76
2021/12/01 00:15:17;;;;;;;3.40;1.40;;;;;;;5.05;100.00;99809.75;6300264;28;20070;-76
2021/12/01 00:18:19;;;;;;;2.83;1.60;;;;;;;5.06;100.00;99807.97;6300220;28;20052;-76
2021/12/01 00:21:20;;;;;;;2.28;1.48;;;;;;;5.11;100.00;99803.41;6300064;28;20051;-76
2021/12/01 00:24:21;;;;;;;3.90;2.90;;;;;;;5.06;100.00;99787.16;6300114;28;20044;-76
2021/12/01 00:27:23;;;;;;;2.47;1.40;;;;;;;5.11;100.00;99779.13;6300112;28;20392;-76
2021/12/01 00:30:26;;;;;;;2.17;1.70;;;;;;;5.09;100.00;99767.03;6299628;28;20052;-76
2021/12/01 00:33:27;;;;;;;5.78;2.28;;;;;;;5.09;100.00;99754.00;6298826;28;20411;-76
2021/12/01 00:36:29;;;;;;;2.63;1.75;;;;;;;5.09;100.00;99754.00;6299463;28;20056;-76
2021/12/01 00:39:30;;;;;;;4.30;1.98;;;;;;;5.14;100.00;99734.72;6299924;28;20049;-76
2021/12/01 00:42:32;;;;;;;2.72;1.98;;;;;;;5.12;100.00;99731.34;6299677;28;20053;-76
2021/12/01 00:45:35;;;;;;;4.90;2.28;;;;;;;5.14;100.00;99724.31;6299550;28;20051;-76
2021/12/01 00:48:36;;;;;;;3.25;1.83;;;;;;;5.13;100.00;99712.19;6299597;28;20419;-76
2021/12/01 00:51:37;;;;;;;3.95;1.83;;;;;;;5.17;100.00;99704.16;6299101;28;20046;-76
2021/12/01 00:54:39;;;;;;;2.45;1.92;;;;;;;5.16;100.00;99691.22;6299352;28;20415;-76
2021/12/01 00:57:40;;;;;;;2.05;1.50;;;;;;;5.15;100.00;99677.34;6299313;28;20052;-76
2021/12/01 01:00:44;;;;;;;3.20;2.13;;;;;;;5.16;100.00;99666.00;6298975;28;20412;-76
2021/12/01 01:03:45;;;;;;;3.17;1.85;;;;;;;5.17;100.00;99661.63;6295424;28;20115;-76
2021/12/01 01:06:46;;;;;;;2.22;1.67;;;;;;;5.19;100.00;99658.06;6298791;28;20396;-77
2021/12/01 01:09:48;;;;;;;4.65;1.77;;;;;;;5.20;100.00;99649.31;6298567;28;20048;-76
2021/12/01 01:16:25;;;;;;;2.85;1.52;;;;;;;5.25;100.00;99636.91;6298769;28;20616;-76
2021/12/01 01:19:26;;;;;;;4.53;1.92;;;;;;;5.27;100.00;99631.66;6291393;28;20048;-76
2021/12/01 01:22:28;;;;;;;2.88;1.60;;;;;;;5.28;100.00;99630.72;6298462;28;20082;-76
2021/12/01 01:25:30;;;;;;;4.30;2.17;;;;;;;5.29;100.00;99624.59;6298704;28;20411;-76
2021/12/01 01:28:31;;;;;;;2.72;1.88;;;;;;;5.32;100.00;99617.47;6298384;28;20123;-77
2021/12/01 01:31:35;;;;;;;4.47;2.28;;;;;;;5.34;100.00;99610.41;6298169;28;20048;-76
2021/12/01 01:34:37;;;;;;;2.55;1.55;;;;;;;5.38;100.00;99599.84;6298235;28;20048;-76
2021/12/01 01:37:38;;;;;;;1.92;1.73;;;;;;;5.40;100.00;99601.44;6298291;28;20052;-76
2021/12/01 01:40:39;;;;;;;2.83;1.90;;;;;;;5.34;100.00;99589.56;6298097;28;20049;-76
2021/12/01 01:43:43;;;;;;;4.72;1.92;;;;;;;5.37;100.00;99579.94;6298007;28;20063;-76
2021/12/01 01:46:46;;;;;;;3.20;1.48;;;;;;;5.48;100.00;99565.41;6297584;28;20048;-76
2021/12/01 01:49:52;;;;;;;2.65;1.70;;;;;;;5.46;100.00;99558.63;6297812;28;20063;-76
2021/12/01 01:52:53;;;;;;;2.63;1.40;;;;;;;5.46;100.00;99556.00;6295134;28;20048;-76
2021/12/01 01:55:57;;;;;;;1.67;1.05;;;;;;;5.49;100.00;99545.41;6297693;28;20503;-76
2021/12/01 01:58:58;;;;;;;2.65;1.65;;;;;;;5.50;100.00;99529.72;6298157;28;20048;-76
2021/12/01 02:02:01;;;;;;;1.75;1.33;;;;;;;5.55;100.00;99524.25;6296950;28;20055;-76
2021/12/01 02:05:03;;;;;;;1.25;1.13;;;;;;;5.57;100.00;99509.38;6297735;28;20067;-76
2021/12/01 02:08:05;;;;;;;1.42;1.02;;;;;;;5.58;100.00;99504.06;6297631;28;20053;-77
2021/12/01 02:11:11;;;;;;;1.60;1.25;;;;;;;5.62;100.00;99490.88;6297667;28;20052;-77
2021/12/01 02:14:13;;;;;;;2.45;1.27;;;;;;;5.67;100.00;99481.91;6297455;28;20047;-76
2021/12/01 02:17:15;;;;;;;2.33;1.35;;;;;;;5.70;100.00;99466.09;6297979;28;20437;-76
2021/12/01 02:20:20;;;;;;;2.67;1.60;;;;;;;5.75;100.00;99464.09;6297244;28;20057;-76
2021/12/01 02:23:23;;;;;;;3.92;1.40;;;;;;;5.78;100.00;99455.28;6297046;28;20048;-76
2021/12/01 02:26:25;;;;;;;3.78;1.35;;;;;;;5.84;100.00;99442.72;6297192;28;20102;-76
2021/12/01 02:29:28;;;;;;;2.05;1.33;;;;;;;5.93;100.00;99427.53;6297062;28;20045;-76
2021/12/01 02:32:29;;;;;;;2.83;1.92;;;;;;;5.98;100.00;99421.13;6296176;28;20041;-75
2021/12/01 02:35:32;;;;;;;2.38;1.50;;;;;;;6.06;100.00;99418.13;6296750;28;20044;-76
2021/12/01 02:38:33;;;;;;;1.63;0.93;;;;;;;6.09;100.00;99405.75;6296930;28;20052;-79
2021/12/01 02:41:36;;;;;;;3.13;1.13;;;;;;;6.18;100.00;99398.34;6297116;28;20151;-76
2021/12/01 02:44:37;;;;;;;3.58;1.80;;;;;;;6.22;100.00;99392.84;6296858;28;20414;-76
2021/12/01 02:47:38;;;;;;;2.40;1.48;;;;;;;6.25;100.00;99381.38;6296873;28;20048;-76
2021/12/01 02:50:42;;;;;;;4.13;2.25;;;;;;;6.31;100.00;99368.84;6296838;28;20507;-76
2021/12/01 02:53:44;;;;;;;2.75;1.52;;;;;;;6.37;100.00;99366.81;6296614;28;20538;-76
2021/12/01 02:56:47;;;;;;;3.80;2.13;;;;;;;6.39;100.00;99350.13;6295212;28;20041;-75
2021/12/01 02:59:49;;;;;;;2.65;2.03;;;;;;;6.50;100.00;99344.28;6295326;28;20052;-75
2021/12/01 03:02:53;;;;;;;5.72;1.90;;;;;;;6.55;100.00;99337.84;6294925;28;20074;-75
2021/12/01 03:05:57;;;;;;;3.83;2.47;;;;;;;6.61;100.00;99326.22;6296058;28;20041;-75
2021/12/01 03:08:59;;;;;;;5.00;2.22;;;;;;;6.67;100.00;99325.00;6296194;28;20048;-74
2021/12/01 03:12:00;;;;;;;3.03;2.13;;;;;;;6.68;100.00;99313.66;6296009;28;20419;-75
2021/12/01 03:15:02;;;;;;;3.40;2.22;;;;;;;6.74;100.00;99306.28;6295593;28;20051;-75
2021/12/01 03:18:03;;;;;;;5.50;2.42;;;;;;;6.86;100.00;99302.09;6294004;28;20044;-75
2021/12/01 03:21:06;;;;;;;3.88;2.58;;;;;;;6.92;100.00;99295.63;6295815;28;20083;-74
2021/12/01 03:24:08;;;;;;;4.18;2.38;;;;;;;6.97;100.00;99288.34;6296189;28;20057;-75
2021/12/01 03:27:10;;;;;;;4.35;3.05;;;;;;;7.04;100.00;99281.78;6295912;28;20135;-75
2021/12/01 03:30:13;;;;;;;7.13;2.33;;;;;;;7.11;100.00;99270.03;6295847;28;20052;-75
2021/12/01 03:33:17;;;;;;;3.45;2.35;;;;;;;7.19;100.00;99259.13;6295727;28;20052;-76
2021/12/01 03:36:20;;;;;;;4.55;2.42;;;;;;;7.28;100.00;99248.09;6295869;28;20055;-76
2021/12/01 03:39:23;;;;;;;3.88;2.22;;;;;;;7.33;100.00;99249.47;6296248;28;20044;-75
2021/12/01 03:42:24;;;;;;;5.85;3.08;;;;;;;7.32;100.00;99245.19;6295594;28;20048;-75
2021/12/01 03:45:26;;;;;;;3.85;2.30;;;;;;;7.37;100.00;99234.44;6295598;28;20388;-75
2021/12/01 03:48:28;;;;;;;3.60;1.98;;;;;;;7.40;100.00;99225.53;6295726;28;20052;-75
2021/12/01 03:51:30;;;;;;;4.05;2.30;;;;;;;7.42;100.00;99221.06;6295782;28;20045;-76
2021/12/01 03:54:32;;;;;;;3.70;2.30;;;;;;;7.55;100.00;99203.66;6295835;28;20041;-75
2021/12/01 03:57:34;;;;;;;3.45;2.17;;;;;;;7.51;100.00;99203.00;6295941;28;20063;-75
2021/12/01 04:00:35;;;;;;;4.25;2.50;;;;;;;7.49;100.00;99194.41;6295480;28;20055;-75
2021/12/01 04:03:37;;;;;;;4.35;2.35;;;;;;;7.47;100.00;99185.84;6295367;28;20059;-75
2021/12/01 04:06:39;;;;;;;2.63;1.88;;;;;;;7.48;100.00;99190.13;6295829;28;20064;-77
2021/12/01 04:09:44;;;;;;;4.47;2.58;;;;;;;7.54;100.00;99179.28;6295125;28;20055;-76
2021/12/01 04:12:46;;;;;;;3.63;2.00;;;;;;;7.56;100.00;99192.25;6299288;28;20044;-76
2021/12/01 04:15:47;;;;;;;1.95;1.58;;;;;;;7.63;100.00;99167.38;6300266;28;20044;-75
2021/12/01 04:18:49;;;;;;;2.38;1.60;;;;;;;7.56;100.00;99159.09;6300335;28;20076;-76
2021/12/01 04:21:52;;;;;;;2.05;1.50;;;;;;;7.54;100.00;99154.91;6299693;28;20632;-76
2021/12/01 04:24:53;;;;;;;1.38;1.27;;;;;;;7.54;100.00;99152.28;6298268;28;20055;-76
2021/12/01 04:27:55;;;;;;;2.08;1.35;;;;;;;7.58;100.00;99143.31;6299190;28;20071;-75
2021/12/01 04:30:56;;;;;;;1.08;0.98;;;;;;;7.60;100.00;99136.22;6299696;28;20133;-75
2021/12/01 04:33:58;;;;;;;1.77;1.10;;;;;;;7.57;100.00;99146.88;6299686;28;20064;-75
2021/12/01 04:37:01;;;;;;;1.95;1.40;;;;;;;7.56;100.00;99159.09;6299611;28;20041;-77
2021/12/01 04:40:05;;;;;;;2.78;1.23;;;;;;;7.59;100.00;99131.94;6299541;28;20658;-76
2021/12/01 04:43:06;;;;;;;2.10;0.90;;;;;;;7.56;100.00;99134.75;6299366;28;20048;-76
2021/12/01 04:46:08;;;;;;;1.60;0.95;;;;;;;7.57;100.00;99120.72;6299501;28;20052;-75
2021/12/01 04:49:10;;;;;;;1.15;1.00;;;;;;;7.51;100.00;99119.38;6299608;28;20044;-76
2021/12/01 04:52:13;;;;;;;1.25;0.95;;;;;;;7.51;100.00;99115.91;6299211;28;20068;-75
2021/12/01 04:55:15;;;;;;;4.32;1.45;;;;;;;7.54;100.00;99111.31;6285447;28;20488;-75
2021/12/01 04:58:16;;;;;;;2.55;1.50;;;;;;;7.53;100.00;99087.88;6286413;28;20057;-76
2021/12/01 05:01:18;;;;;;;2.45;1.27;;;;;;;7.48;100.00;99092.59;6298728;28;20517;-75
2021/12/01 05:04:19;;;;;;;1.55;1.27;;;;;;;7.52;100.00;99084.44;6295159;28;20052;-76
2021/12/01 05:07:23;;;;;;;1.55;1.13;;;;;;;7.55;100.00;99079.00;6290526;28;20056;-74
2021/12/01 05:10:24;;;;;;;2.38;1.58;;;;;;;7.51;100.00;99072.31;6298711;28;20059;-75
2021/12/01 05:13:26;;;;;;;1.85;1.40;;;;;;;7.44;100.00;99060.59;6299119;28;20439;-76
2021/12/01 05:16:27;;;;;;;1.67;1.35;;;;;;;7.44;100.00;99052.75;6298366;28;20040;-76
2021/12/01 05:19:28;;;;;;;1.20;1.10;;;;;;;7.48;100.00;99049.00;6298326;28;20431;-76
2021/12/01 05:22:31;;;;;;;1.50;1.13;;;;;;;7.49;100.00;99034.97;6297192;28;20052;-76
2021/12/01 05:25:32;;;;;;;1.42;1.27;;;;;;;7.49;100.00;99027.13;6298469;28;20044;-76
2021/12/01 05:28:34;;;;;;;1.92;0.95;;;;;;;7.40;100.00;99047.84;6298351;28;20052;-76
2021/12/01 05:31:35;;;;;;;2.03;1.08;;;;;;;7.42;100.00;99031.13;6298410;28;20045;-76
2021/12/01 05:34:37;;;;;;;1.65;1.33;;;;;;;7.47;100.00;99013.34;6298234;28;20048;-76
2021/12/01 05:37:39;;;;;;;1.67;1.08;;;;;;;7.43;100.00;99022.34;6298411;28;20060;-76
2021/12/01 05:40:41;;;;;;;1.75;1.27;;;;;;;7.40;100.00;99004.25;6297967;28;20056;-76
2021/12/01 05:43:43;;;;;;;1.45;1.10;;;;;;;7.40;100.00;99004.25;6298362;28;20679;-76
2021/12/01 05:46:44;;;;;;;1.40;1.00;;;;;;;7.43;100.00;99005.81;6297907;28;20048;-77
2021/12/01 05:49:45;;;;;;;1.50;1.10;;;;;;;7.38;100.00;98998.28;6298177;28;20051;-78
2021/12/01 05:52:48;;;;;;;1.23;1.13;;;;;;;7.40;100.00;98978.09;6297868;28;20075;-76
2021/12/01 05:55:51;;;;;;;1.83;1.35;;;;;;;7.42;100.00;98971.00;6297749;28;20045;-76
2021/12/01 05:58:52;;;;;;;2.38;1.73;;;;;;;7.37;100.00;98962.66;6298138;28;20049;-74
2021/12/01 06:01:54;;;;;;;1.55;1.25;;;;;;;7.38;100.00;98964.31;6297551;28;20057;-77
2021/12/01 06:04:55;;;;;;;1.48;1.30;;;;;;;7.35;100.00;98967.13;6297609;28;20499;-76
2021/12/01 06:07:58;;;;;;;2.28;1.30;;;;;;;7.34;100.00;98952.41;6297494;28;20048;-76
2021/12/01 06:10:59;;;;;;;1.80;1.15;;;;;;;7.33;100.00;98966.41;6296508;28;20055;-76
2021/12/01 06:14:01;;;;;;;5.10;1.42;;;;;;;7.37;100.00;98941.75;6297509;28;20048;-77
2021/12/01 06:17:03;;;;;;;1.67;1.58;;;;;;;7.36;100.00;98937.47;6290978;28;20040;-76
2021/12/01 06:20:06;;;;;;;3.33;1.95;;;;;;;7.32;100.00;98941.25;6296795;28;20056;-77
2021/12/01 06:23:09;;;;;;;2.88;1.75;;;;;;;7.32;100.00;98928.19;6297132;28;20052;-76
2021/12/01 06:26:10;;;;;;;2.20;0.90;;;;;;;7.30;100.00;98932.66;6297153;28;20048;-75
2021/12/01 06:29:11;;;;;;;2.53;1.38;;;;;;;7.31;100.00;98906.44;6296851;28;20052;-76
2021/12/01 06:32:13;;;;;;;1.50;1.23;;;;;;;7.29;100.00;98904.88;6297089;28;20122;-75
2021/12/01 06:35:14;;;;;;;1.35;1.25;;;;;;;7.30;100.00;98896.91;6296456;28;20048;-75
2021/12/01 06:38:18;;;;;;;1.67;1.20;;;;;;;7.20;100.00;98879.38;6296320;28;20048;-77
2021/12/01 06:41:19;;;;;;;2.05;1.50;;;;;;;7.25;100.00;98878.09;6283859;28;20059;-76
2021/12/01 06:44:21;;;;;;;1.15;1.05;;;;;;;7.15;100.00;98871.84;6284018;28;20640;-76
2021/12/01 06:47:22;;;;;;;1.35;1.15;;;;;;;7.15;100.00;98856.19;6281453;28;20045;-76
2021/12/01 06:50:23;;;;;;;1.65;1.23;;;;;;;7.11;100.00;98866.00;6283230;28;20514;-76
2021/12/01 06:53:27;;;;;;;1.23;1.13;;;;;;;7.04;100.00;98843.88;6281561;28;20488;-76
2021/12/01 06:56:28;;;;;;;2.35;0.95;;;;;;;7.05;100.00;98842.09;6272971;28;20095;-76
2021/12/01 06:59:30;;;;;;;1.95;1.40;;;;;;;7.01;100.00;98833.63;6271778;28;20049;-76
2021/12/01 07:02:31;;;;;;;1.88;1.40;;;;;;;7.06;100.00;98823.69;6279954;28;20045;-75
2021/12/01 07:05:32;;;;;;;2.40;1.67;;;;;;;7.05;100.00;98834.28;6295009;28;20048;-76
2021/12/01 07:08:36;;;;;;;1.65;1.27;;;;;;;7.05;100.00;98823.81;6296320;28;20048;-77
2021/12/01 07:11:37;;;;;;;1.40;1.10;;;;;;;7.01;100.00;98822.34;6296367;28;20079;-76
2021/12/01 07:14:39;;;;;;;0.88;0.88;;;;;;;7.01;100.00;98811.91;6296068;28;20504;-76
2021/12/01 07:17:40;;;;;;;2.28;1.75;;;;;;;7.12;100.00;98806.75;6296067;28;20416;-76
2021/12/01 07:20:45;;;;;;;1.42;1.23;;;;;;;7.04;100.00;98803.84;6296195;28;20059;-76
2021/12/01 07:23:47;;;;;;;2.55;1.35;;;;;;;6.98;100.00;98805.13;6296269;28;20052;-76
2021/12/01 07:26:49;;;;;;;1.30;1.10;;;;;;;6.94;100.00;98793.22;6290270;28;20051;-75
2021/12/01 07:29:50;;;;;;;1.77;0.95;;;;;;;6.84;100.00;98793.03;6295495;28;20492;-76
2021/12/01 07:32:52;;;;;;;1.45;1.13;;;;;;;6.84;100.00;98784.34;6281640;28;20462;-76
2021/12/01 07:35:53;;;;;;;2.08;1.30;;;;;;;6.85;100.00;98783.41;6284189;28;20041;-76
2021/12/01 07:38:57;;;;;;;1.52;1.33;;;;;;;6.80;100.00;98782.91;6296079;28;20052;-75
2021/12/01 07:41:58;;;;;;;2.10;1.33;;;;;;;6.79;100.00;98774.22;6286439;28;20419;-76
2021/12/01 07:45:00;;;;;;;1.48;1.35;;;;;;;6.71;100.00;98760.88;6278676;28;20517;-75
2021/12/01 07:48:01;;;;;;;2.22;1.42;;;;;;;6.74;100.00;98763.28;6300904;28;20044;-75
2021/12/01 07:51:04;;;;;;;1.58;1.10;;;;;;;6.72;100.00;98756.47;6300778;28;20518;-75
2021/12/01 07:54:06;;;;;;;2.15;1.20;;;;;;;6.69;100.00;98759.34;6297557;28;20451;-76
2021/12/01 07:57:08;;;;;;;1.77;1.23;;;;;;;6.63;100.00;98750.13;6300660;28;20045;-77
2021/12/01 08:00:11;;;;;;;2.50;1.20;;;;;;;6.61;100.00;98739.81;6300463;28;20052;-76
2021/12/01 08:03:12;;;;;;;1.15;1.02;;;;;;;6.60;100.00;98724.25;6300909;28;20059;-78
2021/12/01 08:06:13;;;;;;;1.73;1.10;;;;;;;6.58;100.00;98715.69;6297842;28;20040;-77
2021/12/01 08:09:17;;;;;;;1.30;1.00;;;;;;;6.55;100.00;98705.47;6301117;28;20400;-77
2021/12/01 08:12:18;;;;;;;1.80;1.20;;;;;;;6.57;100.00;98703.59;6276841;28;20053;-78
2021/12/01 08:15:21;;;;;;;1.55;1.10;;;;;;;6.55;100.00;98695.03;6290167;28;20056;-78
2021/12/01 08:18:22;;;;;;;1.58;1.13;;;;;;;6.53;100.00;98691.69;6297644;28;20048;-77
2021/12/01 08:21:24;;;;;;;3.28;1.10;;;;;;;6.57;100.00;98680.94;6298287;28;20538;-79
2021/12/01 08:24:27;;;;;;;1.20;0.80;;;;;;;6.54;100.00;98669.88;6297542;28;20060;-78
2021/12/01 08:27:29;;;;;;;1.33;0.82;;;;;;;6.51;100.00;98670.94;6298516;28;20053;-77
2021/12/01 08:30:31;;;;;;;1.65;0.93;;;;;;;6.57;100.00;98664.44;6292656;28;20054;-76
2021/12/01 08:33:33;;;;;;;1.42;1.00;;;;;;;6.56;100.00;98660.19;6299421;28;20048;-76
2021/12/01 08:36:34;;;;;;;2.97;1.40;;;;;;;6.54;100.00;98660.28;6297235;28;20048;-75
2021/12/01 08:39:37;;;;;;;2.25;1.08;;;;;;;6.57;100.00;98661.84;6299554;28;20045;-76
2021/12/01 08:42:38;;;;;;;1.00;0.77;;;;;;;6.59;100.00;98670.41;6298861;28;20357;-76
2021/12/01 08:45:40;;;;;;;1.83;1.35;;;;;;;6.60;100.00;98643.38;6299000;28;20063;-78
2021/12/01 08:48:41;;;;;;;2.70;1.15;;;;;;;6.64;100.00;98626.53;6295410;28;20412;-78
2021/12/01 08:51:43;;;;;;;1.60;1.00;;;;;;;6.62;100.00;98625.81;6284075;28;20048;-77
2021/12/01 08:54:45;;;;;;;1.90;1.20;;;;;;;6.68;100.00;98616.72;6298243;28;20044;-78
2021/12/01 08:57:47;;;;;;;1.63;0.88;;;;;;;6.70;100.00;98618.25;6293443;28;20499;-79
2021/12/01 09:00:48;;;;;;;1.27;0.95;;;;;;;6.74;100.00;98618.88;6296806;28;20044;-79
2021/12/01 09:03:49;;;;;;;1.67;1.13;;;;;;;6.70;100.00;98617.44;6295404;28;20056;-79
2021/12/01 09:06:51;;;;;;;0.65;0.65;;;;;;;6.66;100.00;98610.75;6296226;28;20571;-78
2021/12/01 09:09:53;;;;;;;1.55;0.90;;;;;;;6.66;100.00;98606.38;6297051;28;20060;-78
2021/12/01 09:12:55;;;;;;;1.42;0.80;;;;;;;6.68;100.00;98598.47;6297247;28;20056;-78
2021/12/01 09:15:56;;;;;;;1.20;1.10;;;;;;;6.67;100.00;98597.59;6296798;28;20411;-80
2021/12/01 09:18:58;;;;;;;1.10;0.80;;;;;;;6.71;100.00;98586.00;6297709;28;20044;-77
2021/12/01 09:21:59;;;;;;;1.00;0.85;;;;;;;6.78;100.00;98595.06;6296848;28;20051;-76
2021/12/01 09:25:02;;;;;;;1.67;1.05;;;;;;;6.79;100.00;98581.06;6296709;28;20063;-77
2021/12/01 09:28:04;;;;;;;1.42;0.88;;;;;;;6.80;100.00;98582.72;6296787;28;20419;-80
2021/12/01 09:31:06;;;;;;;2.25;0.77;;;;;;;6.85;100.00;98593.66;6297724;28;20052;-79
2021/12/01 09:34:09;;;;;;;1.20;0.82;;;;;;;6.89;100.00;98562.13;6298760;28;20060;-78
2021/12/01 09:37:10;;;;;;;0.73;0.65;;;;;;;6.97;100.00;98558.00;6299254;28;20044;-78
2021/12/01 09:40:17;;;;;;;0.68;0.50;;;;;;;7.08;100.00;98551.97;6297532;28;20044;-75
2021/12/01 09:43:21;;;;;;;0.65;0.63;;;;;;;7.06;100.00;98546.88;6294957;28;20052;-76
2021/12/01 09:46:24;;;;;;;0.68;0.68;;;;;;;7.11;100.00;98544.75;6295560;28;20041;-81
2021/12/01 09:49:25;;;;;;;0.68;0.65;;;;;;;7.17;100.00;98538.22;6298756;28;20052;-78
2021/12/01 09:52:26;;;;;;;0.40;0.40;;;;;;;7.16;100.00;98527.91;6298159;28;20049;-77
2021/12/01 09:55:29;;;;;;;0.50;0.40;;;;;;;7.28;100.00;98524.38;6298642;28;20055;-78
2021/12/01 09:58:32;;;;;;;0.63;0.30;;;;;;;7.26;100.00;98511.41;6298630;28;20045;-78
2021/12/01 10:01:33;;;;;;;0.63;0.43;;;;;;;7.27;100.00;98513.09;6296159;28;20047;-79
2021/12/01 10:04:35;;;;;;;0.40;0.40;;;;;;;7.27;100.00;98507.03;6286493;28;20048;-76
2021/12/01 10:07:36;;;;;;;0.45;0.45;;;;;;;7.31;100.00;98521.50;6296279;28;20124;-78
2021/12/01 10:10:40;;;;;;;0.60;0.60;;;;;;;7.32;100.00;98510.13;6298166;28;20053;-78
2021/12/01 10:13:43;;;;;;;0.52;0.52;;;;;;;7.39;100.00;98495.63;6298176;28;20048;-80
2021/12/01 10:16:46;;;;;;;0.50;0.50;;;;;;;7.42;100.00;98482.34;6300530;28;20040;-77
2021/12/01 10:19:47;;;;;;;1.50;0.60;;;;;;;7.45;100.00;98468.19;6298875;28;20407;-78
2021/12/01 10:23:08;;;;;;;0.55;0.55;;;;;;;7.43;100.00;98465.72;6298239;28;20411;-79
2021/12/01 10:26:15;;;;;;;0.40;0.40;;;;;;;7.43;100.00;98454.44;6298886;28;20048;-79
2021/12/01 10:29:18;;;;;;;0.50;0.50;;;;;;;7.42;100.00;98447.56;6291956;28;20492;-80
2021/12/01 10:32:20;;;;;;;0.40;0.40;;;;;;;7.51;100.00;98458.13;6284485;28;20040;-76
2021/12/01 10:35:33;;;;;;;0.47;0.47;;;;;;;7.56;100.00;98457.78;6285485;28;20049;-78
2021/12/01 10:38:37;;;;;;;0.40;0.38;;;;;;;7.51;100.00;98450.28;6295494;28;20045;-79
2021/12/01 10:41:42;;;;;;;0.50;0.40;;;;;;;7.55;100.00;98432.59;6297785;28;20055;-79
2021/12/01 10:44:59;;;;;;;2.85;0.85;;;;;;;7.53;100.00;98419.63;6298428;28;20049;-78
2021/12/01 10:48:01;;;;;;;0.60;0.60;;;;;;;7.58;100.00;98407.03;6297761;28;20048;-78
2021/12/01 10:51:03;;;;;;;1.65;0.60;;;;;;;7.49;100.00;98399.91;6297411;28;20059;-79
2021/12/01 10:54:05;;;;;;;0.70;0.70;;;;;;;7.53;100.00;98374.38;6297375;28;20048;-79
2021/12/01 10:57:23;;;;;;;0.75;0.50;;;;;;;7.61;100.00;98367.59;6295671;28;20044;-80
2021/12/01 11:00:26;;;;;;;1.15;0.50;;;;;;;7.65;100.00;98377.81;6295968;28;20049;-81
2021/12/01 11:03:30;;;;;;;0.30;0.30;;;;;;;7.66;100.00;98375.06;6295435;28;20052;-78
2021/12/01 11:06:34;;;;;;;0.30;0.30;;;;;;;7.69;100.00;98361.75;6295666;28;20049;-79
2021/12/01 11:09:35;;;;;;;1.42;0.68;;;;;;;7.67;100.00;98376.72;6297429;28;20159;-81
2021/12/01 11:12:38;;;;;;;0.50;0.50;;;;;;;7.75;100.00;98363.03;6296665;28;20488;-79
2021/12/01 11:15:42;;;;;;;0.38;0.38;;;;;;;7.74;100.00;98356.97;6297825;28;20056;-79
2021/12/01 11:18:45;;;;;;;0.40;0.40;;;;;;;7.69;100.00;98338.22;6297173;28;20047;-79
2021/12/01 11:21:47;;;;;;;0.50;0.50;;;;;;;7.73;100.00;98347.50;6299983;28;20048;-77
2021/12/01 11:24:48;;;;;;;0.32;0.28;;;;;;;7.70;100.00;98336.44;6302316;28;20048;-79
2021/12/01 11:27:51;;;;;;;1.15;0.60;;;;;;;7.75;100.00;98352.59;6302112;28;20056;-78
2021/12/01 11:30:56;;;;;;;0.32;0.32;;;;;;;7.74;100.00;98335.25;6301317;28;20048;-76
2021/12/01 11:33:59;;;;;;;1.00;0.60;;;;;;;7.64;100.00;98322.09;6301185;28;20044;-77
2021/12/01 11:37:02;;;;;;;1.08;0.63;;;;;;;7.57;100.00;98333.97;6301258;28;20064;-78
2021/12/01 11:40:04;;;;;;;0.70;0.57;;;;;;;7.54;100.00;98315.91;6301759;28;20506;-78
2021/12/01 11:43:10;;;;;;;1.15;0.55;;;;;;;7.50;100.00;98309.31;6302140;28;20491;-77
2021/12/01 11:46:12;;;;;;;0.43;0.43;;;;;;;7.56;100.00;98307.00;6301412;28;20480;-78
2021/12/01 11:49:16;;;;;;;0.55;0.55;;;;;;;7.61;100.00;98285.72;6301502;28;20056;-79
2021/12/01 11:52:26;;;;;;;0.60;0.60;;;;;;;7.63;100.00;98291.69;6301012;28;20044;-79
2021/12/01 11:55:50;;;;;;;4.10;0.50;;;;;;;7.63;100.00;98284.66;6301653;28;20049;-80
2021/12/01 11:58:56;;;;;;;0.77;0.77;;;;;;;7.61;100.00;98283.13;6301456;28;20056;-80
2021/12/01 12:01:59;;;;;;;0.60;0.60;;;;;;;7.66;100.00;98280.97;6301137;28;20063;-79
2021/12/01 12:05:02;;;;;;;0.65;0.65;;;;;;;7.62;100.00;98293.44;6300966;28;20048;-78
2021/12/01 12:08:06;;;;;;;0.50;0.50;;;;;;;7.68;100.00;98276.44;6301279;28;20161;-77
2021/12/01 12:11:35;;;;;;;2.85;0.98;;;;;;;7.73;100.00;98286.53;6301782;28;20495;-80
2021/12/01 12:14:47;;;;;;;0.60;0.60;;;;;;;7.63;100.00;98274.22;6300583;28;20056;-79
2021/12/01 12:17:49;;;;;;;0.70;0.70;;;;;;;7.46;100.00;98273.91;6300550;28;20067;-75
2021/12/01 12:21:12;;;;;;;0.90;0.65;;;;;;;7.43;100.00;98261.09;6300382;28;20045;-77
2021/12/01 12:24:17;;;;;;;0.80;0.80;;;;;;;7.41;100.00;98240.31;6300862;28;20045;-80
2021/12/01 12:27:37;;;;;;;2.10;0.93;;;;;;;7.41;100.00;98235.09;6301289;28;20058;-80
2021/12/01 12:30:41;;;;;;;1.10;0.88;;;;;;;7.43;100.00;98250.63;6301318;28;20055;-79
2021/12/01 12:33:51;;;;;;;0.88;0.70;;;;;;;7.48;100.00;98244.06;6301971;28;20044;-82
2021/12/01 12:36:56;;;;;;;2.15;1.20;;;;;;;7.50;100.00;98255.25;6300391;28;20047;-78
2021/12/01 12:39:58;;;;;;;0.90;0.90;;;;;;;7.49;100.00;98266.63;6300001;28;20060;-80
2021/12/01 12:43:07;;;;;;;0.70;0.70;;;;;;;7.43;100.00;98261.09;6300983;28;20059;-80
2021/12/01 12:46:12;;;;;;;0.73;0.70;;;;;;;7.50;100.00;98246.59;6301134;28;20055;-81
2021/12/01 12:49:37;;;;;;;0.80;0.80;;;;;;;7.49;100.00;98253.56;6301507;28;20657;-81
2021/12/01 12:52:41;;;;;;;0.60;0.60;;;;;;;7.46;100.00;98245.16;6300522;28;20048;-77
2021/12/01 12:55:43;;;;;;;0.40;0.40;;;;;;;7.47;100.00;98244.22;6300253;28;20492;-80
2021/12/01 12:58:47;;;;;;;2.38;0.77;;;;;;;7.52;100.00;98235.03;6302022;28;20049;-84
2021/12/01 13:01:53;;;;;;;0.43;0.43;;;;;;;7.48;100.00;98230.19;6302771;28;20881;-85
2021/12/01 13:04:59;;;;;;;0.32;0.32;;;;;;;7.51;100.00;98250.84;6298048;28;20063;-81
2021/12/01 13:08:01;;;;;;;0.43;0.43;;;;;;;7.62;100.00;98229.88;6300904;28;20044;-82
2021/12/01 13:11:05;;;;;;;0.20;0.20;;;;;;;7.65;100.00;98223.59;6294827;28;20052;-83
2021/12/01 13:14:06;;;;;;;0.25;0.25;;;;;;;7.66;100.00;98231.28;6297889;28;20067;-84
2021/12/01 13:17:09;;;;;;;0.25;0.25;;;;;;;7.64;100.00;98222.75;6299845;28;20056;-78
2021/12/01 13:20:10;;;;;;;2.72;0.40;;;;;;;7.64;100.00;98209.69;6299397;28;20053;-82
2021/12/01 13:23:16;;;;;;;0.22;0.20;;;;;;;7.73;100.00;98219.41;6300263;28;20045;-78
2021/12/01 13:26:19;;;;;;;0.13;0.13;;;;;;;7.84;100.00;98223.72;6299995;28;20044;-78
2021/12/01 13:29:20;;;;;;;0.20;0.20;;;;;;;7.72;100.00;98237.81;6299040;28;20049;-77
2021/12/01 13:32:23;;;;;;;0.60;0.40;;;;;;;7.73;100.00;98210.72;6295404;28;20048;-79
2021/12/01 13:35:29;;;;;;;0.35;0.15;;;;;;;7.71;100.00;98221.28;6297766;28;20072;-78
2021/12/01 13:38:33;;;;;;;0.00;0.00;;;;;;;7.70;100.00;98210.97;6297351;28;20067;-78
2021/12/01 13:41:37;;;;;;;0.17;0.17;;;;;;;7.63;100.00;98216.72;6298907;28;20053;-76
2021/12/01 13:44:41;;;;;;;0.17;0.17;;;;;;;7.64;100.00;98201.84;6297972;28;20434;-77
2021/12/01 13:47:44;;;;;;;3.40;0.47;;;;;;;7.66;100.00;98199.09;6298452;28;20423;-81
2021/12/01 13:50:45;;;;;;;0.25;0.20;;;;;;;7.63;100.00;98198.41;6298950;28;20049;-82
2021/12/01 13:53:47;;;;;;;0.22;0.22;;;;;;;7.71;100.00;98189.91;6298894;28;20554;-78
2021/12/01 13:56:59;;;;;;;3.55;0.20;;;;;;;7.72;100.00;98185.50;6298624;28;20052;-80
2021/12/01 14:00:01;;;;;;;0.38;0.30;;;;;;;7.68;100.00;98186.75;6299585;28;20048;-78
2021/12/01 14:03:07;;;;;;;3.20;0.55;;;;;;;7.73;100.00;98174.13;6298247;28;20060;-80
2021/12/01 14:06:11;;;;;;;0.77;0.40;;;;;;;7.76;100.00;98182.53;6285552;28;20492;-79
2021/12/01 14:09:14;;;;;;;2.50;0.50;;;;;;;7.81;100.00;98169.91;6296677;28;20045;-81
2021/12/01 14:12:20;;;;;;;0.68;0.68;;;;;;;7.76;100.00;98181.69;6298081;28;20055;-78
2021/12/01 14:15:26;;;;;;;0.10;0.10;;;;;;;7.69;100.00;98149.19;6297876;28;20048;-79
2021/12/01 14:18:29;;;;;;;1.52;0.25;;;;;;;7.79;100.00;98168.38;6298534;28;20048;-81
2021/12/01 14:21:35;;;;;;;0.28;0.20;;;;;;;7.74;100.00;98162.72;6296297;28;20498;-82
2021/12/01 14:24:36;;;;;;;1.48;0.25;;;;;;;7.80;100.00;98167.41;6297844;28;20048;-81